Time;durP1;ratioP1;P1;durP2;ratioP2;P2;SDS_P1;SDS_P2;PMS_P1;PMS_P2;Temp;Humidity;BMP_temperature;BMP_pressure;BME280_temperature;BME280_humidity;BME280_pressure;Samples;Min_cycle;Max_cycle;Signal;HPM_P1;HPM_P2
2024/02/26 00:01:46;;;;;;;5.03;4.43;;;2.60;99.90;;;;;;5076141;28;20229;-61
2024/02/26 00:04:13;;;;;;;10.13;5.00;;;2.60;99.90;;;;;;5082365;28;20185;-62
2024/02/26 00:06:41;;;;;;;4.72;4.32;;;2.60;99.90;;;;;;5089638;28;20197;-61
2024/02/26 00:09:07;;;;;;;5.15;4.72;;;2.60;99.90;;;;;;5086457;28;20369;-62
2024/02/26 00:11:34;;;;;;;7.20;5.25;;;2.60;99.90;;;;;;5075429;28;20225;-62
2024/02/26 00:14:02;;;;;;;4.93;4.43;;;2.60;99.90;;;;;;5075462;28;20690;-61
2024/02/26 00:16:29;;;;;;;5.47;4.53;;;2.60;99.90;;;;;;5074824;28;20211;-62
2024/02/26 00:18:56;;;;;;;6.90;4.68;;;2.60;99.90;;;;;;5075882;28;20221;-61
2024/02/26 00:21:23;;;;;;;5.57;4.90;;;2.60;99.90;;;;;;5078168;28;20670;-61
2024/02/26 00:23:51;;;;;;;4.95;4.45;;;2.60;99.90;;;;;;5077202;28;20201;-62
2024/02/26 00:26:17;;;;;;;5.72;4.63;;;2.60;99.90;;;;;;5074331;28;20278;-62
2024/02/26 00:28:44;;;;;;;4.60;4.20;;;2.60;99.90;;;;;;5075972;28;20193;-62
2024/02/26 00:31:12;;;;;;;6.00;4.88;;;2.50;99.90;;;;;;5077901;28;20555;-61
2024/02/26 00:33:39;;;;;;;5.93;4.38;;;2.50;99.90;;;;;;5078204;28;20689;-61
2024/02/26 00:36:06;;;;;;;5.00;4.50;;;2.50;99.90;;;;;;5078238;28;20211;-62
2024/02/26 00:38:33;;;;;;;4.72;4.22;;;2.50;99.90;;;;;;5078264;28;20227;-61
2024/02/26 00:41:00;;;;;;;4.93;4.47;;;2.50;99.90;;;;;;5077974;28;20651;-62
2024/02/26 00:43:27;;;;;;;4.13;3.80;;;2.50;99.90;;;;;;5077335;28;20221;-62
2024/02/26 00:45:53;;;;;;;7.47;4.63;;;2.40;99.90;;;;;;5077453;28;20208;-61
2024/02/26 00:48:22;;;;;;;5.90;4.95;;;2.40;99.90;;;;;;5077732;28;20197;-59
2024/02/26 00:50:48;;;;;;;6.28;4.53;;;2.40;99.90;;;;;;5077035;28;20630;-62
2024/02/26 00:53:15;;;;;;;5.70;4.20;;;2.40;99.90;;;;;;5077143;28;20717;-62
2024/02/26 00:55:42;;;;;;;4.65;4.05;;;2.40;99.90;;;;;;5077307;28;20205;-61
2024/02/26 00:58:09;;;;;;;4.47;4.07;;;2.40;99.90;;;;;;5077808;28;20243;-61
2024/02/26 01:00:35;;;;;;;6.07;4.60;;;2.40;99.90;;;;;;5077233;28;20284;-62
2024/02/26 01:03:03;;;;;;;4.35;3.95;;;2.40;99.90;;;;;;5076341;28;20796;-60
2024/02/26 01:05:31;;;;;;;4.70;4.18;;;2.40;99.90;;;;;;5076626;28;20746;-61
2024/02/26 01:07:58;;;;;;;5.68;4.53;;;2.40;99.90;;;;;;5076908;28;20213;-61
2024/02/26 01:10:25;;;;;;;5.75;4.50;;;2.40;99.90;;;;;;5077294;28;20205;-61
2024/02/26 01:12:51;;;;;;;7.75;4.90;;;2.30;99.90;;;;;;5076508;28;20737;-62
2024/02/26 01:15:21;;;;;;;7.40;4.15;;;2.30;99.90;;;;;;5076610;28;20691;-61
2024/02/26 01:17:48;;;;;;;4.50;4.05;;;2.30;99.90;;;;;;5077490;28;20231;-61
2024/02/26 01:20:15;;;;;;;5.75;4.22;;;2.30;99.90;;;;;;5077624;28;20205;-61
2024/02/26 01:22:43;;;;;;;4.50;4.00;;;2.40;99.90;;;;;;5076729;28;20221;-61
2024/02/26 01:25:10;;;;;;;5.85;5.03;;;2.40;99.90;;;;;;5076510;28;20577;-61
2024/02/26 01:27:36;;;;;;;4.95;4.43;;;2.40;99.90;;;;;;5076856;28;20201;-61
2024/02/26 01:30:03;;;;;;;4.40;3.80;;;2.40;99.90;;;;;;5076724;28;20207;-62
2024/02/26 01:32:30;;;;;;;5.22;3.95;;;2.50;99.90;;;;;;5077783;28;20459;-61
2024/02/26 01:34:57;;;;;;;5.90;4.40;;;2.50;99.90;;;;;;5076251;28;20205;-60
2024/02/26 01:37:24;;;;;;;6.40;4.88;;;2.60;99.90;;;;;;5076418;28;20201;-62
2024/02/26 01:39:52;;;;;;;7.05;4.65;;;2.60;99.90;;;;;;5075251;28;20667;-61
2024/02/26 01:42:19;;;;;;;6.50;4.50;;;2.60;99.90;;;;;;5076131;28;20722;-63
2024/02/26 01:44:46;;;;;;;5.28;4.43;;;2.60;99.90;;;;;;5076469;28;20201;-62
2024/02/26 01:47:14;;;;;;;5.55;4.00;;;2.60;99.90;;;;;;5076596;28;20205;-61
2024/02/26 01:49:41;;;;;;;4.80;4.10;;;2.60;99.90;;;;;;5076451;28;20205;-62
2024/02/26 01:52:09;;;;;;;5.57;4.32;;;2.60;99.90;;;;;;5077553;28;20221;-62
2024/02/26 01:54:37;;;;;;;4.22;3.55;;;2.60;99.90;;;;;;5077461;28;20216;-62
2024/02/26 01:57:06;;;;;;;6.18;4.38;;;2.60;99.90;;;;;;5076260;28;20208;-64
2024/02/26 01:59:35;;;;;;;4.97;4.03;;;2.60;99.90;;;;;;5075843;28;20707;-61
2024/02/26 02:02:06;;;;;;;4.63;4.22;;;2.60;99.90;;;;;;5075634;28;20718;-62
2024/02/26 02:04:33;;;;;;;5.38;3.88;;;2.60;99.90;;;;;;5076051;28;20197;-61
2024/02/26 02:07:02;;;;;;;7.75;5.15;;;2.60;99.90;;;;;;5076642;28;20224;-61
2024/02/26 02:09:29;;;;;;;6.15;4.38;;;2.60;99.90;;;;;;5076043;28;20194;-61
2024/02/26 02:11:56;;;;;;;6.80;3.75;;;2.60;99.90;;;;;;5075871;28;20229;-61
2024/02/26 02:14:26;;;;;;;6.70;4.70;;;2.60;99.90;;;;;;5076477;28;20211;-61
2024/02/26 02:16:53;;;;;;;4.55;4.15;;;2.60;99.90;;;;;;5075607;28;20227;-62
2024/02/26 02:19:19;;;;;;;5.90;4.63;;;2.60;99.90;;;;;;5083434;28;20232;-62
2024/02/26 02:21:47;;;;;;;4.70;4.30;;;2.60;99.90;;;;;;5081818;28;20589;-62
2024/02/26 02:24:14;;;;;;;5.53;4.13;;;2.50;99.90;;;;;;5075662;28;20205;-61
2024/02/26 02:26:41;;;;;;;3.97;3.63;;;2.50;99.90;;;;;;5075495;28;20201;-61
2024/02/26 02:29:09;;;;;;;3.47;3.17;;;2.50;99.90;;;;;;5075770;28;20201;-62
2024/02/26 02:31:36;;;;;;;5.57;3.83;;;2.50;99.90;;;;;;5075599;28;20225;-63
2024/02/26 02:34:03;;;;;;;4.47;4.07;;;2.50;99.90;;;;;;5076527;28;20231;-61
2024/02/26 02:36:30;;;;;;;4.20;3.42;;;2.50;99.90;;;;;;5076306;28;20201;-60
2024/02/26 02:38:58;;;;;;;4.20;3.80;;;2.50;99.90;;;;;;5074877;28;20217;-62
2024/02/26 02:41:26;;;;;;;5.18;3.92;;;2.50;99.90;;;;;;5075212;28;20608;-61
2024/02/26 02:43:53;;;;;;;4.55;3.50;;;2.50;99.90;;;;;;5075659;28;20205;-62
2024/02/26 02:46:20;;;;;;;5.93;3.40;;;2.50;99.90;;;;;;5075496;28;20216;-61
2024/02/26 02:48:46;;;;;;;4.10;3.40;;;2.50;99.90;;;;;;5075938;28;20197;-61
2024/02/26 02:51:13;;;;;;;4.95;3.55;;;2.50;99.90;;;;;;5074535;28;20216;-62
2024/02/26 02:53:40;;;;;;;5.50;3.58;;;2.50;99.90;;;;;;5074663;28;20201;-63
2024/02/26 02:56:08;;;;;;;4.50;3.88;;;2.50;99.90;;;;;;5074851;28;20689;-62
2024/02/26 02:58:35;;;;;;;3.70;3.40;;;2.50;99.90;;;;;;5075260;28;20212;-62
2024/02/26 03:01:02;;;;;;;4.38;3.10;;;2.50;99.90;;;;;;5075555;28;20228;-61
2024/02/26 03:03:28;;;;;;;5.15;3.50;;;2.50;99.90;;;;;;5077093;28;20354;-61
2024/02/26 03:05:56;;;;;;;3.78;3.47;;;2.50;99.90;;;;;;5075896;28;20205;-61
2024/02/26 03:08:23;;;;;;;3.90;2.85;;;2.50;99.90;;;;;;5077329;28;20251;-61
2024/02/26 03:10:50;;;;;;;4.50;3.42;;;2.50;99.90;;;;;;5077461;28;20201;-61
2024/02/26 03:13:18;;;;;;;4.13;3.70;;;2.50;99.90;;;;;;5076833;28;20217;-61
2024/02/26 03:15:45;;;;;;;5.82;3.40;;;2.50;99.90;;;;;;5077439;28;20289;-61
2024/02/26 03:18:12;;;;;;;4.45;3.03;;;2.50;99.90;;;;;;5077794;28;20588;-60
2024/02/26 03:20:39;;;;;;;4.30;3.63;;;2.50;99.90;;;;;;5077702;28;20671;-61
2024/02/26 03:23:06;;;;;;;7.82;4.00;;;2.40;99.90;;;;;;5077355;28;20225;-62
2024/02/26 03:25:32;;;;;;;5.70;3.58;;;2.40;99.90;;;;;;5079197;28;20204;-60
2024/02/26 03:27:59;;;;;;;3.88;3.50;;;2.40;99.90;;;;;;5081802;28;20207;-61
2024/02/26 03:30:27;;;;;;;4.80;3.85;;;2.40;99.90;;;;;;5081646;28;20194;-62
2024/02/26 03:32:54;;;;;;;5.30;3.90;;;2.40;99.90;;;;;;5075639;28;20225;-62
2024/02/26 03:35:21;;;;;;;3.70;3.40;;;2.40;99.90;;;;;;5074275;28;20201;-60
2024/02/26 03:37:50;;;;;;;4.18;3.15;;;2.40;99.90;;;;;;5074441;28;20205;-60
2024/02/26 03:40:18;;;;;;;3.35;3.05;;;2.40;99.90;;;;;;5074487;28;20217;-62
2024/02/26 03:42:45;;;;;;;5.13;4.15;;;2.40;99.90;;;;;;5074549;28;20221;-61
2024/02/26 03:45:12;;;;;;;3.75;3.28;;;2.40;99.90;;;;;;5074562;28;20577;-61
2024/02/26 03:47:40;;;;;;;4.05;3.20;;;2.40;99.90;;;;;;5079832;28;20662;-61
2024/02/26 03:50:08;;;;;;;4.05;3.15;;;2.40;99.90;;;;;;5080568;28;20243;-61
2024/02/26 03:52:35;;;;;;;3.67;3.03;;;2.40;99.90;;;;;;5079859;28;20225;-61
2024/02/26 03:55:01;;;;;;;4.30;3.75;;;2.40;99.90;;;;;;5081537;28;20212;-60
2024/02/26 03:57:28;;;;;;;3.38;3.00;;;2.40;99.90;;;;;;5080229;28;20227;-60
2024/02/26 03:59:55;;;;;;;4.75;3.35;;;2.40;99.90;;;;;;5079804;28;20213;-61
2024/02/26 04:02:22;;;;;;;4.03;3.05;;;2.40;99.90;;;;;;5081955;28;20255;-62
2024/02/26 04:04:51;;;;;;;3.05;2.45;;;2.50;99.90;;;;;;5087955;28;20205;-61
2024/02/26 04:07:18;;;;;;;3.55;2.88;;;2.50;99.90;;;;;;5085531;28;20291;-61
2024/02/26 04:13:14;;;;;;;5.57;3.40;;;2.50;99.90;;;;;;5091472;27;20570;-62
2024/02/26 04:15:41;;;;;;;6.65;3.33;;;2.60;99.90;;;;;;5091629;28;20212;-61
2024/02/26 04:18:08;;;;;;;3.38;3.03;;;2.60;99.90;;;;;;5091694;28;20658;-60
2024/02/26 04:20:35;;;;;;;3.70;3.40;;;2.60;99.90;;;;;;5091655;28;20204;-62
2024/02/26 04:23:02;;;;;;;3.60;3.30;;;2.60;99.90;;;;;;5091628;28;20227;-61
2024/02/26 04:25:28;;;;;;;2.88;2.55;;;2.60;99.90;;;;;;5092480;28;20200;-62
2024/02/26 04:27:55;;;;;;;3.75;3.10;;;2.60;99.90;;;;;;5091086;28;20208;-61
2024/02/26 04:30:23;;;;;;;3.30;3.00;;;2.60;99.90;;;;;;5091823;28;20212;-60
2024/02/26 04:32:50;;;;;;;4.65;3.30;;;2.60;99.90;;;;;;5091555;28;20221;-61
2024/02/26 04:35:17;;;;;;;4.97;4.57;;;2.60;99.90;;;;;;5091718;28;20215;-61
2024/02/26 04:37:44;;;;;;;4.32;3.47;;;2.60;99.90;;;;;;5091946;28;20207;-62
2024/02/26 04:40:11;;;;;;;3.90;3.08;;;2.60;99.90;;;;;;5090843;28;20193;-61
2024/02/26 04:42:38;;;;;;;4.97;3.65;;;2.70;99.90;;;;;;5091292;28;20227;-62
2024/02/26 04:45:06;;;;;;;3.17;2.88;;;2.70;99.90;;;;;;5091766;28;20200;-60
2024/02/26 04:47:34;;;;;;;4.93;3.75;;;2.70;99.90;;;;;;5095381;28;20200;-63
2024/02/26 04:50:01;;;;;;;5.57;3.30;;;2.70;99.90;;;;;;5092923;28;20228;-61
2024/02/26 04:52:28;;;;;;;3.30;3.00;;;2.70;99.90;;;;;;5091365;28;20228;-62
2024/02/26 04:54:55;;;;;;;4.00;2.80;;;2.60;99.90;;;;;;5091118;28;20205;-62
2024/02/26 04:57:22;;;;;;;4.00;3.60;;;2.60;99.90;;;;;;5091103;28;20697;-61
2024/02/26 04:59:49;;;;;;;3.65;3.30;;;2.60;99.90;;;;;;5091067;28;20215;-62
2024/02/26 05:02:16;;;;;;;4.97;3.28;;;2.60;99.90;;;;;;5080334;22;20229;-59
2024/02/26 05:04:44;;;;;;;3.60;3.30;;;2.60;99.90;;;;;;5049639;28;20259;-59
2024/02/26 05:07:12;;;;;;;3.45;3.03;;;2.60;99.90;;;;;;5049208;28;20216;-57
2024/02/26 05:09:39;;;;;;;3.53;3.22;;;2.60;99.90;;;;;;5049482;28;20289;-60
2024/02/26 05:12:06;;;;;;;3.92;3.30;;;2.60;99.90;;;;;;5049372;28;20222;-60
2024/02/26 05:14:33;;;;;;;3.63;3.25;;;2.60;99.90;;;;;;5048976;28;20583;-58
2024/02/26 05:16:59;;;;;;;3.50;3.20;;;2.60;99.90;;;;;;5049301;28;20202;-60
2024/02/26 05:19:26;;;;;;;3.90;3.22;;;2.60;99.90;;;;;;5049236;28;20218;-59
2024/02/26 05:21:54;;;;;;;4.28;3.10;;;2.60;99.90;;;;;;5049334;28;20309;-59
2024/02/26 05:24:22;;;;;;;4.05;3.65;;;2.60;99.90;;;;;;5037357;28;20206;-59
2024/02/26 05:26:49;;;;;;;3.78;3.45;;;2.60;99.90;;;;;;5035858;28;20242;-60
2024/02/26 05:29:16;;;;;;;3.72;3.35;;;2.60;99.90;;;;;;5036721;28;20202;-60
2024/02/26 05:31:43;;;;;;;3.75;3.40;;;2.60;99.90;;;;;;5036331;28;20553;-58
2024/02/26 05:34:10;;;;;;;5.22;3.28;;;2.60;99.90;;;;;;5035711;28;20233;-59
2024/02/26 05:36:36;;;;;;;4.35;3.47;;;2.60;99.90;;;;;;5035639;28;20205;-56
2024/02/26 05:39:05;;;;;;;3.67;3.05;;;2.60;99.90;;;;;;5036418;28;20680;-59
2024/02/26 05:41:31;;;;;;;4.68;4.18;;;2.60;99.90;;;;;;5035471;28;20219;-58
2024/02/26 05:43:59;;;;;;;3.63;3.30;;;2.60;99.90;;;;;;5035698;28;20256;-60
2024/02/26 05:46:26;;;;;;;3.67;3.15;;;2.60;99.90;;;;;;5035470;28;20202;-59
2024/02/26 05:48:54;;;;;;;4.95;3.65;;;2.70;99.90;;;;;;5035308;28;20802;-59
2024/02/26 05:51:20;;;;;;;6.25;4.10;;;2.70;99.90;;;;;;5035373;28;20237;-59
2024/02/26 05:53:53;;;;;;;4.43;4.03;;;2.70;99.90;;;;;;5035224;28;20684;-61
2024/02/26 05:56:21;;;;;;;4.13;3.72;;;2.70;99.90;;;;;;5035376;28;20222;-60
2024/02/26 05:58:48;;;;;;;5.50;4.22;;;2.70;99.90;;;;;;5035879;28;20281;-59
2024/02/26 06:01:16;;;;;;;4.65;3.35;;;2.80;99.90;;;;;;5035244;28;20614;-60
2024/02/26 06:03:43;;;;;;;4.53;3.50;;;2.80;99.90;;;;;;5035540;28;20206;-59
2024/02/26 06:06:11;;;;;;;5.72;4.10;;;2.80;99.90;;;;;;5035687;28;20206;-60
2024/02/26 06:08:38;;;;;;;5.25;3.70;;;2.90;99.90;;;;;;5035327;28;20209;-60
2024/02/26 06:11:06;;;;;;;4.38;3.97;;;2.90;99.90;;;;;;5036563;28;20602;-59
2024/02/26 06:13:34;;;;;;;4.43;3.63;;;2.90;99.90;;;;;;5035614;28;20234;-60
2024/02/26 06:16:02;;;;;;;4.20;3.30;;;3.00;99.90;;;;;;5035535;28;20584;-57
2024/02/26 06:18:29;;;;;;;3.80;3.50;;;3.00;99.90;;;;;;5035544;28;20210;-59
2024/02/26 06:20:55;;;;;;;4.28;3.88;;;3.00;99.90;;;;;;5035810;28;20240;-59
2024/02/26 06:23:22;;;;;;;4.07;3.40;;;3.00;99.90;;;;;;5035731;28;20289;-60
2024/02/26 06:25:49;;;;;;;8.77;3.40;;;3.00;99.90;;;;;;5035851;28;20210;-60
2024/02/26 06:28:16;;;;;;;4.20;3.80;;;3.00;99.90;;;;;;5035292;28;20206;-60
2024/02/26 06:30:44;;;;;;;6.00;3.42;;;3.00;99.90;;;;;;5035021;28;20220;-60
2024/02/26 06:33:11;;;;;;;4.82;4.15;;;3.10;99.90;;;;;;5035286;28;20654;-59
2024/02/26 06:35:38;;;;;;;4.05;3.10;;;3.10;99.90;;;;;;5034469;28;20203;-60
2024/02/26 06:38:05;;;;;;;4.55;4.13;;;3.10;99.90;;;;;;5035010;28;20203;-60
2024/02/26 06:40:32;;;;;;;5.47;3.35;;;3.10;99.90;;;;;;5034929;28;20206;-60
2024/02/26 06:42:59;;;;;;;5.65;4.40;;;3.20;99.90;;;;;;5034826;28;20230;-58
2024/02/26 06:45:25;;;;;;;4.10;3.75;;;3.20;99.90;;;;;;5035036;28;20218;-59
2024/02/26 06:47:53;;;;;;;11.77;3.75;;;3.20;99.90;;;;;;5035384;28;20205;-59
2024/02/26 06:50:20;;;;;;;4.30;3.90;;;3.30;99.90;;;;;;5035268;28;20214;-58
2024/02/26 06:52:47;;;;;;;4.13;3.78;;;3.30;99.90;;;;;;5034979;28;20566;-59
2024/02/26 06:55:13;;;;;;;5.82;4.28;;;3.40;99.90;;;;;;5035187;28;20645;-61
2024/02/26 06:57:40;;;;;;;5.30;4.13;;;3.40;99.90;;;;;;5034395;28;20233;-59
2024/02/26 07:00:08;;;;;;;4.63;4.22;;;3.40;99.90;;;;;;5034019;28;20198;-58
2024/02/26 07:02:35;;;;;;;6.13;4.20;;;3.50;99.90;;;;;;5034679;28;20232;-60
2024/02/26 07:05:03;;;;;;;4.53;4.13;;;3.50;99.90;;;;;;5034609;28;20202;-58
2024/02/26 07:07:30;;;;;;;6.35;3.67;;;3.60;99.90;;;;;;5033754;28;20660;-57
2024/02/26 07:09:56;;;;;;;6.03;4.78;;;3.60;99.90;;;;;;5033799;28;20204;-58
2024/02/26 07:12:23;;;;;;;3.85;3.47;;;3.70;99.90;;;;;;5034157;28;20228;-58
2024/02/26 07:14:52;;;;;;;5.82;4.80;;;3.70;99.90;;;;;;5034245;28;20673;-58
2024/02/26 07:17:19;;;;;;;5.85;4.45;;;3.80;99.90;;;;;;5034323;28;20224;-59
2024/02/26 07:19:46;;;;;;;4.50;4.05;;;3.80;99.90;;;;;;5034007;28;20203;-58
2024/02/26 07:22:14;;;;;;;4.50;4.10;;;3.80;99.90;;;;;;5034934;28;20246;-58
2024/02/26 07:24:41;;;;;;;4.28;3.88;;;3.90;99.90;;;;;;5033813;28;20199;-58
2024/02/26 07:27:08;;;;;;;6.57;4.75;;;3.90;99.90;;;;;;5034006;28;20229;-58
2024/02/26 07:29:35;;;;;;;7.78;4.75;;;3.90;99.90;;;;;;5033606;28;20213;-59
2024/02/26 07:32:01;;;;;;;4.10;3.75;;;4.00;99.90;;;;;;5033986;28;20230;-58
2024/02/26 07:34:29;;;;;;;5.20;4.70;;;4.00;99.90;;;;;;5033602;28;20302;-57
2024/02/26 07:36:56;;;;;;;6.57;4.53;;;4.10;99.90;;;;;;5033792;28;20198;-57
2024/02/26 07:39:24;;;;;;;5.97;4.85;;;4.10;99.90;;;;;;5033318;28;20601;-58
2024/02/26 07:41:52;;;;;;;5.38;4.47;;;4.10;99.90;;;;;;5033582;28;20573;-59
2024/02/26 07:44:19;;;;;;;5.18;4.68;;;4.10;99.90;;;;;;5033458;28;20260;-58
2024/02/26 07:46:46;;;;;;;6.97;5.03;;;4.20;99.90;;;;;;5032720;28;20199;-58
2024/02/26 07:49:12;;;;;;;5.75;4.80;;;4.20;99.90;;;;;;5033256;28;20206;-59
2024/02/26 07:51:39;;;;;;;5.20;4.70;;;4.20;99.90;;;;;;5033842;28;20226;-59
2024/02/26 07:54:06;;;;;;;5.40;4.57;;;4.20;99.90;;;;;;5033103;28;20222;-58
2024/02/26 07:56:34;;;;;;;5.20;4.72;;;4.20;99.90;;;;;;5033260;28;20204;-60
2024/02/26 07:59:01;;;;;;;5.57;4.97;;;4.30;99.90;;;;;;5033345;28;20637;-59
2024/02/26 08:01:28;;;;;;;5.15;4.50;;;4.30;99.90;;;;;;5032870;28;20227;-59
2024/02/26 08:03:55;;;;;;;5.70;5.13;;;4.40;99.90;;;;;;5033086;28;20198;-59
2024/02/26 08:06:22;;;;;;;5.22;4.60;;;4.40;99.90;;;;;;5033282;28;20522;-59
2024/02/26 08:08:48;;;;;;;5.07;4.68;;;4.50;99.90;;;;;;5033092;28;20556;-58
2024/02/26 08:11:16;;;;;;;5.40;4.82;;;4.50;99.90;;;;;;5032813;28;20725;-59
2024/02/26 08:13:44;;;;;;;4.57;4.15;;;4.60;99.90;;;;;;5032932;28;20218;-58
2024/02/26 08:16:11;;;;;;;5.75;4.65;;;4.60;99.90;;;;;;5034136;28;20209;-59
2024/02/26 08:18:38;;;;;;;5.00;4.47;;;4.70;99.90;;;;;;5032511;28;20301;-59
2024/02/26 08:21:05;;;;;;;5.68;4.47;;;4.80;99.90;;;;;;5032946;28;20222;-59
2024/02/26 08:23:32;;;;;;;6.40;4.97;;;4.80;99.90;;;;;;5033574;28;20195;-60
2024/02/26 08:25:59;;;;;;;5.03;4.53;;;4.80;99.90;;;;;;5032821;28;20200;-59
2024/02/26 08:28:25;;;;;;;5.10;4.60;;;4.90;99.90;;;;;;5033336;28;20203;-60
2024/02/26 08:30:54;;;;;;;5.40;4.30;;;4.90;99.90;;;;;;5032974;28;20203;-59
2024/02/26 08:33:20;;;;;;;4.55;4.15;;;5.00;99.90;;;;;;5034251;28;20226;-60
2024/02/26 08:35:47;;;;;;;6.43;4.57;;;5.10;99.90;;;;;;5034449;28;20207;-58
2024/02/26 08:38:14;;;;;;;6.15;4.05;;;5.10;99.90;;;;;;5034629;28;20542;-58
2024/02/26 08:40:40;;;;;;;5.70;4.05;;;5.20;99.90;;;;;;5034448;28;20222;-60
2024/02/26 08:43:08;;;;;;;4.00;3.35;;;5.30;99.90;;;;;;5034413;28;20226;-58
2024/02/26 08:45:35;;;;;;;3.72;3.42;;;5.30;99.90;;;;;;5034622;28;20300;-59
2024/02/26 08:48:03;;;;;;;3.78;3.47;;;5.40;99.90;;;;;;5033646;28;20292;-60
2024/02/26 08:50:29;;;;;;;3.90;3.60;;;5.50;99.90;;;;;;5032524;28;20204;-59
2024/02/26 08:52:56;;;;;;;4.45;3.88;;;5.60;99.90;;;;;;5032593;28;20227;-60
2024/02/26 08:55:23;;;;;;;4.25;3.60;;;5.70;99.90;;;;;;5032404;28;20230;-59
2024/02/26 08:57:50;;;;;;;3.40;3.10;;;5.80;99.90;;;;;;5032464;28;20204;-59
2024/02/26 09:00:20;;;;;;;6.70;4.05;;;5.90;99.90;;;;;;5036140;28;20217;-59
2024/02/26 09:02:46;;;;;;;4.70;3.55;;;5.90;99.90;;;;;;5036624;28;20228;-59
2024/02/26 09:05:15;;;;;;;3.70;3.40;;;6.00;99.90;;;;;;5036975;28;20686;-59
2024/02/26 09:07:41;;;;;;;3.75;3.30;;;6.10;99.90;;;;;;5036619;28;20205;-57
2024/02/26 09:10:10;;;;;;;4.72;3.60;;;6.10;99.90;;;;;;5036325;28;20204;-59
2024/02/26 09:12:37;;;;;;;3.20;2.92;;;6.10;99.90;;;;;;5035988;28;20226;-59
2024/02/26 09:15:04;;;;;;;5.28;3.60;;;6.10;99.90;;;;;;5035724;28;20212;-59
2024/02/26 09:17:31;;;;;;;4.03;3.17;;;6.10;99.90;;;;;;5035654;28;20208;-59
2024/02/26 09:19:57;;;;;;;3.42;3.13;;;6.10;99.90;;;;;;5035400;28;20646;-59
2024/02/26 09:22:25;;;;;;;3.85;3.45;;;6.10;99.90;;;;;;5035720;28;20225;-60
2024/02/26 09:24:53;;;;;;;3.08;2.78;;;6.10;99.90;;;;;;5035504;28;20201;-58
2024/02/26 09:27:20;;;;;;;3.53;2.90;;;6.10;99.90;;;;;;5035513;28;20284;-59
2024/02/26 09:29:47;;;;;;;4.43;3.40;;;6.20;99.90;;;;;;5035555;28;20303;-59
2024/02/26 09:32:14;;;;;;;3.20;2.88;;;6.20;99.90;;;;;;5035490;28;20646;-59
2024/02/26 09:34:41;;;;;;;2.92;2.22;;;6.30;99.90;;;;;;5035607;28;20243;-60
2024/02/26 09:37:08;;;;;;;3.42;2.40;;;6.30;99.90;;;;;;5036369;28;20255;-58
2024/02/26 09:39:36;;;;;;;3.88;2.55;;;6.40;99.90;;;;;;5036036;28;20234;-60
2024/02/26 09:42:06;;;;;;;3.90;3.05;;;6.40;99.90;;;;;;5035568;28;20236;-59
2024/02/26 09:44:38;;;;;;;3.22;2.92;;;6.50;99.90;;;;;;5035412;28;20204;-59
2024/02/26 09:47:06;;;;;;;5.15;2.92;;;6.60;99.90;;;;;;5035338;28;20282;-60
2024/02/26 09:49:33;;;;;;;3.30;3.00;;;6.60;99.90;;;;;;5034985;28;20232;-60
2024/02/26 09:52:02;;;;;;;3.00;2.70;;;6.70;99.90;;;;;;5034970;28;20222;-60
2024/02/26 09:54:31;;;;;;;4.70;2.60;;;6.70;99.90;;;;;;5035306;28;20228;-59
2024/02/26 09:57:01;;;;;;;4.68;3.30;;;6.70;99.90;;;;;;5035111;28;20200;-59
2024/02/26 09:59:28;;;;;;;2.85;2.45;;;6.80;99.90;;;;;;5035896;28;20200;-59
2024/02/26 10:01:57;;;;;;;3.15;2.40;;;6.80;99.90;;;;;;5036905;28;20237;-59
2024/02/26 10:04:24;;;;;;;2.28;2.08;;;6.80;99.90;;;;;;5036827;28;20208;-60
2024/02/26 10:06:53;;;;;;;2.65;2.45;;;6.90;99.90;;;;;;5035647;28;20215;-59
2024/02/26 10:09:21;;;;;;;2.95;2.30;;;6.90;99.90;;;;;;5034993;28;20238;-60
2024/02/26 10:11:50;;;;;;;3.90;2.60;;;7.10;99.90;;;;;;5034645;28;20304;-60
2024/02/26 10:14:18;;;;;;;2.20;2.00;;;7.10;99.90;;;;;;5034649;28;20232;-59
2024/02/26 10:16:45;;;;;;;3.25;2.95;;;7.20;99.90;;;;;;5034719;28;20208;-61
2024/02/26 10:19:26;;;;;;;3.33;2.47;;;7.20;99.90;;;;;;5034566;28;20213;-58
2024/02/26 10:21:57;;;;;;;5.25;2.60;;;7.30;99.90;;;;;;5034686;28;20336;-60
2024/02/26 10:24:23;;;;;;;5.07;2.40;;;7.30;99.90;;;;;;5034688;28;20678;-60
2024/02/26 10:26:50;;;;;;;2.65;2.17;;;7.30;99.90;;;;;;5034835;28;20215;-58
2024/02/26 10:29:19;;;;;;;2.83;2.20;;;7.40;99.90;;;;;;5034187;28;20210;-58
2024/02/26 10:31:46;;;;;;;2.97;2.35;;;7.50;99.60;;;;;;5034126;28;20221;-58
2024/02/26 10:34:13;;;;;;;3.53;2.10;;;7.60;99.50;;;;;;5034531;28;20237;-59
2024/02/26 10:36:40;;;;;;;2.90;2.60;;;7.70;98.90;;;;;;5034228;28;20215;-59
2024/02/26 10:39:08;;;;;;;2.88;2.60;;;7.70;98.40;;;;;;5034802;28;20205;-57
2024/02/26 10:41:35;;;;;;;4.80;2.80;;;7.70;98.10;;;;;;5034258;28;20252;-58
2024/02/26 10:44:01;;;;;;;3.28;2.97;;;7.70;98.00;;;;;;5034508;28;20230;-59
2024/02/26 10:46:29;;;;;;;2.40;2.20;;;7.80;98.20;;;;;;5034037;28;20213;-59
2024/02/26 10:48:57;;;;;;;3.63;2.35;;;7.80;97.90;;;;;;5034043;28;20215;-60
2024/02/26 10:51:27;;;;;;;2.75;2.55;;;7.80;97.50;;;;;;5034129;28;20224;-57
2024/02/26 10:53:58;;;;;;;2.75;2.45;;;7.70;97.30;;;;;;5034215;28;20206;-59
2024/02/26 10:56:27;;;;;;;2.90;2.47;;;7.70;97.20;;;;;;5033138;28;20199;-59
2024/02/26 10:58:54;;;;;;;5.03;3.17;;;7.70;97.30;;;;;;5034035;28;20203;-58
2024/02/26 11:01:22;;;;;;;5.10;2.92;;;7.80;97.30;;;;;;5033220;28;20229;-60
2024/02/26 11:03:51;;;;;;;2.97;2.75;;;7.90;97.30;;;;;;5033953;28;20196;-58
2024/02/26 11:06:20;;;;;;;4.30;3.10;;;8.00;97.20;;;;;;5033706;28;20210;-59
2024/02/26 11:08:49;;;;;;;3.92;2.70;;;8.10;97.10;;;;;;5033370;28;20239;-59
2024/02/26 11:11:17;;;;;;;2.67;2.47;;;8.30;96.90;;;;;;5033565;28;20711;-59
2024/02/26 11:13:49;;;;;;;4.82;2.92;;;8.30;96.40;;;;;;5033459;28;20223;-58
2024/02/26 11:16:17;;;;;;;2.58;2.38;;;8.40;96.00;;;;;;5034033;28;20627;-59
2024/02/26 11:18:44;;;;;;;3.80;3.05;;;8.30;95.70;;;;;;5034127;28;20203;-60
2024/02/26 11:21:16;;;;;;;8.75;2.80;;;8.30;95.60;;;;;;5033156;28;20759;-58
2024/02/26 11:23:43;;;;;;;6.05;2.83;;;8.30;95.50;;;;;;5033794;28;20179;-59
2024/02/26 11:26:11;;;;;;;5.40;2.45;;;8.30;95.50;;;;;;5033227;28;20204;-58
2024/02/26 11:28:40;;;;;;;3.03;2.30;;;8.20;95.50;;;;;;5033631;28;20202;-58
2024/02/26 11:31:07;;;;;;;5.97;2.53;;;8.20;95.50;;;;;;5033643;28;20246;-59
2024/02/26 11:33:35;;;;;;;3.63;2.72;;;8.30;95.50;;;;;;5033490;28;20217;-59
2024/02/26 11:36:02;;;;;;;3.00;2.70;;;8.30;95.50;;;;;;5033332;28;20203;-59
2024/02/26 11:38:31;;;;;;;3.97;2.78;;;8.40;95.30;;;;;;5033091;28;20451;-60
2024/02/26 11:40:59;;;;;;;3.85;2.90;;;8.40;95.10;;;;;;5033104;28;20214;-59
2024/02/26 11:43:50;;;;;;;4.60;2.50;;;8.50;95.10;;;;;;5033546;28;20203;-60
2024/02/26 11:46:26;;;;;;;4.75;3.17;;;8.60;95.00;;;;;;5034175;28;20190;-58
2024/02/26 11:48:56;;;;;;;3.80;3.20;;;8.70;94.70;;;;;;5033745;28;20193;-60
2024/02/26 11:51:26;;;;;;;3.83;3.28;;;8.80;94.20;;;;;;5033711;28;20238;-60
2024/02/26 11:53:57;;;;;;;3.55;2.72;;;8.80;93.90;;;;;;5034100;28;20258;-59
2024/02/26 11:56:26;;;;;;;10.68;3.50;;;8.90;93.30;;;;;;5034069;28;20201;-60
2024/02/26 11:59:01;;;;;;;3.47;2.90;;;8.90;93.00;;;;;;5033890;28;20649;-60
2024/02/26 12:01:42;;;;;;;4.00;3.00;;;8.90;92.70;;;;;;5033290;28;20727;-60
2024/02/26 12:04:12;;;;;;;3.43;2.83;;;8.90;92.80;;;;;;5033954;28;20657;-60
2024/02/26 12:06:45;;;;;;;5.80;3.63;;;9.00;92.80;;;;;;5033503;28;20431;-59
2024/02/26 12:09:14;;;;;;;2.57;2.37;;;9.00;92.70;;;;;;5033458;28;20909;-62
2024/02/26 12:11:41;;;;;;;3.78;3.47;;;9.10;92.50;;;;;;5033109;28;20996;-60
2024/02/26 12:14:10;;;;;;;3.77;3.40;;;9.30;92.30;;;;;;5032750;28;20226;-59
2024/02/26 12:16:38;;;;;;;3.63;3.33;;;9.30;91.60;;;;;;5032806;28;21008;-59
2024/02/26 12:19:06;;;;;;;3.40;2.93;;;9.40;91.50;;;;;;5033145;28;20446;-58
2024/02/26 12:21:35;;;;;;;3.40;3.10;;;9.40;91.20;;;;;;5032711;28;20474;-62
2024/02/26 12:24:14;;;;;;;3.57;3.27;;;9.50;91.60;;;;;;5032715;28;20450;-59
2024/02/26 12:26:41;;;;;;;4.80;3.53;;;9.60;91.20;;;;;;5034066;28;20478;-56
2024/02/26 12:29:09;;;;;;;3.13;2.83;;;9.60;90.60;;;;;;5034949;28;20450;-59
2024/02/26 12:31:38;;;;;;;3.23;2.90;;;9.60;90.40;;;;;;5036466;28;20472;-58
2024/02/26 12:34:05;;;;;;;4.50;3.17;;;9.60;90.10;;;;;;5034936;28;21012;-59
2024/02/26 12:36:34;;;;;;;4.27;3.67;;;9.50;89.40;;;;;;5036355;28;20442;-59
2024/02/26 12:39:01;;;;;;;4.77;3.40;;;9.50;89.90;;;;;;5036872;28;20446;-60
2024/02/26 12:41:30;;;;;;;5.93;3.10;;;9.60;89.20;;;;;;5036596;28;20478;-59
2024/02/26 12:43:57;;;;;;;3.83;3.27;;;9.60;88.60;;;;;;5036959;28;20491;-59
2024/02/26 12:46:24;;;;;;;5.63;3.23;;;9.60;88.20;;;;;;5036433;28;20446;-59
2024/02/26 12:48:50;;;;;;;3.70;3.27;;;9.70;88.30;;;;;;5036396;28;20825;-58
2024/02/26 12:51:18;;;;;;;4.43;3.57;;;9.80;87.80;;;;;;5036572;28;20558;-59
2024/02/26 12:53:46;;;;;;;3.60;3.30;;;9.90;86.80;;;;;;5036128;28;20451;-58
2024/02/26 12:56:12;;;;;;;3.40;3.10;;;10.00;85.10;;;;;;5036595;28;20856;-59
2024/02/26 12:58:41;;;;;;;3.40;3.10;;;10.10;84.70;;;;;;5036213;28;21045;-58
2024/02/26 13:01:08;;;;;;;3.50;3.20;;;10.10;83.10;;;;;;5035625;28;20463;-58
2024/02/26 13:03:37;;;;;;;3.50;3.20;;;10.00;82.20;;;;;;5036689;28;20434;-59